Flinton, Pennsylvania
Current Conditions -  °F | °C
As of 5:54 AM on Friday 31 Oct 2014 (Local Time) from KFIG Reporting Station
Overcast Overcast  
Wind Chill: 36°   Ceiling: 4500
Heat Index: 39°   Visibility: 10mi
Dew Point: 35°   Wind: 5mph
Humidity: 86%   Direction: 350°N
Pressure: 29.98"   Gusts: NA
Location:  40.71°N, 78.52°W
Report Text: KFIG 310954Z AUTO 35004KT 10SM OVC045 04/02 A2998 RMK AO2 SLP159 T00390017
Loading
Personal Weather Stations






























Interactive Weather Map
Tropical Storm Tracking
New forecast layout! Learn more

10-Day Weather Forecast

Advertisements
Track Severe Weather on mobile